Terminal Aerodrome Forecast
Issued by NWS Atlanta, GA

Home | Current Version | Previous Version | Text Only | Print | Product List | Glossary On
Versions: 1 2 3 4 5 6 7 8 9 10 11 12 13 14 15 16 17 18 19 20 21 22 23 24 25 26 27 28 29 30 31 32 33 34 35 36 37 38
019
FTUS42 KFFC 130931 AAB
TAFATL
TAF AMD
KATL 130931Z 1310/1412 31012KT P6SM SKC
     FM131400 27006KT P6SM SKC
     FM131900 24012KT P6SM FEW250
     FM140000 24007KT P6SM SKC
     FM140900 27007KT P6SM SKC=

USA.gov is the U.S. government's official web portal to all federal, state and local government web resources and services.